sensor_id;sensor_type;location;lat;lon;timestamp;pressure;altitude;pressure_sealevel;temperature;humidity
64336;BME280;50672;53.362;-6.240;2023-03-01T00:01:16;103881.94;;;7.30;67.11
64336;BME280;50672;53.362;-6.240;2023-03-01T00:03:44;103880.09;;;7.31;67.53
64336;BME280;50672;53.362;-6.240;2023-03-01T00:06:11;103877.28;;;7.32;67.41
64336;BME280;50672;53.362;-6.240;2023-03-01T00:08:38;103865.59;;;7.32;67.96
64336;BME280;50672;53.362;-6.240;2023-03-01T00:11:11;103863.69;;;7.34;67.93
64336;BME280;50672;53.362;-6.240;2023-03-01T00:13:39;103864.56;;;7.34;68.00
64336;BME280;50672;53.362;-6.240;2023-03-01T00:16:08;103861.63;;;7.39;68.39
64336;BME280;50672;53.362;-6.240;2023-03-01T00:18:35;103865.22;;;7.40;68.34
64336;BME280;50672;53.362;-6.240;2023-03-01T00:21:02;103859.72;;;7.41;68.62
64336;BME280;50672;53.362;-6.240;2023-03-01T00:23:29;103857.88;;;7.42;68.79
64336;BME280;50672;53.362;-6.240;2023-03-01T00:25:56;103850.59;;;7.42;68.76
64336;BME280;50672;53.362;-6.240;2023-03-01T00:28:23;103851.50;;;7.43;68.91
64336;BME280;50672;53.362;-6.240;2023-03-01T00:30:49;103851.44;;;7.44;69.00
64336;BME280;50672;53.362;-6.240;2023-03-01T00:33:16;103847.78;;;7.45;69.11
64336;BME280;50672;53.362;-6.240;2023-03-01T00:35:50;103855.75;;;7.48;69.43
64336;BME280;50672;53.362;-6.240;2023-03-01T00:38:17;103851.09;;;7.50;69.43
64336;BME280;50672;53.362;-6.240;2023-03-01T00:40:43;103851.91;;;7.52;69.48
64336;BME280;50672;53.362;-6.240;2023-03-01T00:43:10;103850.88;;;7.55;69.41
64336;BME280;50672;53.362;-6.240;2023-03-01T00:45:37;103845.28;;;7.58;69.35
64336;BME280;50672;53.362;-6.240;2023-03-01T00:48:04;103847.06;;;7.59;69.42
64336;BME280;50672;53.362;-6.240;2023-03-01T00:50:31;103841.56;;;7.61;69.19
64336;BME280;50672;53.362;-6.240;2023-03-01T00:52:58;103845.22;;;7.60;69.63
64336;BME280;50672;53.362;-6.240;2023-03-01T00:55:25;103841.63;;;7.59;69.38
64336;BME280;50672;53.362;-6.240;2023-03-01T00:57:53;103838.13;;;7.57;69.49
64336;BME280;50672;53.362;-6.240;2023-03-01T01:00:20;103842.50;;;7.60;69.28
64336;BME280;50672;53.362;-6.240;2023-03-01T01:02:47;103845.28;;;7.58;69.14
64336;BME280;50672;53.362;-6.240;2023-03-01T01:05:14;103846.16;;;7.59;68.99
64336;BME280;50672;53.362;-6.240;2023-03-01T01:07:41;103841.63;;;7.59;68.82
64336;BME280;50672;53.362;-6.240;2023-03-01T01:10:08;103844.44;;;7.58;68.74
64336;BME280;50672;53.362;-6.240;2023-03-01T01:12:39;103853.50;;;7.57;68.90
64336;BME280;50672;53.362;-6.240;2023-03-01T01:15:06;103839.06;;;7.56;68.58
64336;BME280;50672;53.362;-6.240;2023-03-01T01:17:33;103839.06;;;7.56;68.71
64336;BME280;50672;53.362;-6.240;2023-03-01T01:20:00;103835.47;;;7.56;68.49
64336;BME280;50672;53.362;-6.240;2023-03-01T01:22:27;103835.47;;;7.56;68.43
64336;BME280;50672;53.362;-6.240;2023-03-01T01:24:53;103831.91;;;7.55;68.41
64336;BME280;50672;53.362;-6.240;2023-03-01T01:27:20;103840.91;;;7.56;68.41
64336;BME280;50672;53.362;-6.240;2023-03-01T01:29:47;103841.84;;;7.55;68.16
64336;BME280;50672;53.362;-6.240;2023-03-01T01:32:14;103835.66;;;7.52;68.29
64336;BME280;50672;53.362;-6.240;2023-03-01T01:34:41;103835.66;;;7.52;67.98
64336;BME280;50672;53.362;-6.240;2023-03-01T01:37:07;103836.59;;;7.51;67.73
64336;BME280;50672;53.362;-6.240;2023-03-01T01:39:35;103842.88;;;7.52;67.33
64336;BME280;50672;53.362;-6.240;2023-03-01T01:42:15;103852.00;;;7.51;66.96
64336;BME280;50672;53.362;-6.240;2023-03-01T01:44:45;103833.97;;;7.50;66.81
64336;BME280;50672;53.362;-6.240;2023-03-01T01:47:18;103822.25;;;7.49;66.48
64336;BME280;50672;53.362;-6.240;2023-03-01T01:49:49;103826.69;;;7.50;66.16
64336;BME280;50672;53.362;-6.240;2023-03-01T01:52:20;103827.69;;;7.49;65.95
64336;BME280;50672;53.362;-6.240;2023-03-01T01:57:32;103818.56;;;7.50;65.57
64336;BME280;50672;53.362;-6.240;2023-03-01T02:00:06;103805.03;;;7.50;65.27
64336;BME280;50672;53.362;-6.240;2023-03-01T02:02:41;103809.56;;;7.50;65.20
64336;BME280;50672;53.362;-6.240;2023-03-01T02:05:15;103798.91;;;7.47;65.03
64336;BME280;50672;53.362;-6.240;2023-03-01T02:07:51;103792.44;;;7.49;64.82
64336;BME280;50672;53.362;-6.240;2023-03-01T02:10:18;103785.25;;;7.48;64.71
64336;BME280;50672;53.362;-6.240;2023-03-01T02:12:46;103773.47;;;7.49;64.57
64336;BME280;50672;53.362;-6.240;2023-03-01T02:15:13;103781.59;;;7.49;64.61
64336;BME280;50672;53.362;-6.240;2023-03-01T02:17:40;103767.06;;;7.50;64.87
64336;BME280;50672;53.362;-6.240;2023-03-01T02:22:40;103764.53;;;7.47;64.74
64336;BME280;50672;53.362;-6.240;2023-03-01T02:27:57;103755.53;;;7.47;64.93
64336;BME280;50672;53.362;-6.240;2023-03-01T02:30:33;103758.25;;;7.47;64.63
64336;BME280;50672;53.362;-6.240;2023-03-01T02:33:03;103757.34;;;7.46;64.82
64336;BME280;50672;53.362;-6.240;2023-03-01T02:35:35;103751.94;;;7.46;64.76
64336;BME280;50672;53.362;-6.240;2023-03-01T02:38:07;103746.50;;;7.46;64.74
64336;BME280;50672;53.362;-6.240;2023-03-01T02:40:39;103751.94;;;7.46;64.91
64336;BME280;50672;53.362;-6.240;2023-03-01T02:43:10;103742.16;;;7.44;64.78
64336;BME280;50672;53.362;-6.240;2023-03-01T02:45:47;103745.72;;;7.44;64.94
64336;BME280;50672;53.362;-6.240;2023-03-01T02:48:14;103749.22;;;7.46;65.09
64336;BME280;50672;53.362;-6.240;2023-03-01T02:51:10;103740.31;;;7.44;64.97
64336;BME280;50672;53.362;-6.240;2023-03-01T02:56:29;103733.13;;;7.43;65.46
64336;BME280;50672;53.362;-6.240;2023-03-01T02:58:57;103729.47;;;7.44;65.26
64336;BME280;50672;53.362;-6.240;2023-03-01T03:01:27;103733.03;;;7.45;65.70
64336;BME280;50672;53.362;-6.240;2023-03-01T03:04:09;103729.47;;;7.44;65.71
64336;BME280;50672;53.362;-6.240;2023-03-01T03:06:37;103719.50;;;7.45;65.68
64336;BME280;50672;53.362;-6.240;2023-03-01T03:09:04;103725.72;;;7.47;65.92
64336;BME280;50672;53.362;-6.240;2023-03-01T03:11:31;103716.00;;;7.43;65.94
64336;BME280;50672;53.362;-6.240;2023-03-01T03:13:59;103717.75;;;7.44;65.94
64336;BME280;50672;53.362;-6.240;2023-03-01T03:16:25;103718.63;;;7.44;65.83
64336;BME280;50672;53.362;-6.240;2023-03-01T03:18:52;103712.34;;;7.44;65.97
64336;BME280;50672;53.362;-6.240;2023-03-01T03:21:19;103718.63;;;7.44;65.85
64336;BME280;50672;53.362;-6.240;2023-03-01T03:23:46;103720.47;;;7.44;66.03
64336;BME280;50672;53.362;-6.240;2023-03-01T03:26:13;103719.56;;;7.43;65.97
64336;BME280;50672;53.362;-6.240;2023-03-01T03:28:41;103714.25;;;7.42;65.99
64336;BME280;50672;53.362;-6.240;2023-03-01T03:31:08;103712.34;;;7.44;65.88
64336;BME280;50672;53.362;-6.240;2023-03-01T03:33:35;103711.44;;;7.43;65.93
64336;BME280;50672;53.362;-6.240;2023-03-01T03:36:02;103705.16;;;7.43;65.98
64336;BME280;50672;53.362;-6.240;2023-03-01T03:38:29;103715.09;;;7.42;66.07
64336;BME280;50672;53.362;-6.240;2023-03-01T03:41:05;103709.84;;;7.39;65.99
64336;BME280;50672;53.362;-6.240;2023-03-01T03:43:35;103709.06;;;7.37;66.01
64336;BME280;50672;53.362;-6.240;2023-03-01T03:46:03;103704.53;;;7.38;65.88
64336;BME280;50672;53.362;-6.240;2023-03-01T03:48:37;103698.22;;;7.37;65.97
64336;BME280;50672;53.362;-6.240;2023-03-01T03:51:04;103705.38;;;7.38;65.85
64336;BME280;50672;53.362;-6.240;2023-03-01T03:53:32;103701.81;;;7.38;66.11
64336;BME280;50672;53.362;-6.240;2023-03-01T03:55:59;103706.38;;;7.37;65.83
64336;BME280;50672;53.362;-6.240;2023-03-01T03:58:32;103707.31;;;7.36;66.00
64336;BME280;50672;53.362;-6.240;2023-03-01T04:01:00;103707.41;;;7.34;65.81
64336;BME280;50672;53.362;-6.240;2023-03-01T04:03:28;103706.53;;;7.34;65.80
64336;BME280;50672;53.362;-6.240;2023-03-01T04:05:58;103701.97;;;7.34;65.66
64336;BME280;50672;53.362;-6.240;2023-03-01T04:08:26;103696.56;;;7.34;65.76
64336;BME280;50672;53.362;-6.240;2023-03-01T04:10:58;103691.22;;;7.33;65.56
64336;BME280;50672;53.362;-6.240;2023-03-01T04:13:26;103690.41;;;7.31;65.44
64336;BME280;50672;53.362;-6.240;2023-03-01T04:15:54;103695.84;;;7.31;65.31
64336;BME280;50672;53.362;-6.240;2023-03-01T04:18:22;103687.69;;;7.31;65.06
64336;BME280;50672;53.362;-6.240;2023-03-01T04:20:50;103684.13;;;7.30;64.99
64336;BME280;50672;53.362;-6.240;2023-03-01T04:23:19;103687.78;;;7.29;64.96
64336;BME280;50672;53.362;-6.240;2023-03-01T04:25:50;103689.63;;;7.29;64.76
64336;BME280;50672;53.362;-6.240;2023-03-01T04:28:33;103687.88;;;7.28;64.80
64336;BME280;50672;53.362;-6.240;2023-03-01T04:31:07;103684.31;;;7.27;64.65
64336;BME280;50672;53.362;-6.240;2023-03-01T04:33:41;103682.53;;;7.26;64.67
64336;BME280;50672;53.362;-6.240;2023-03-01T04:36:09;103680.69;;;7.27;64.72
64336;BME280;50672;53.362;-6.240;2023-03-01T04:38:38;103680.78;;;7.25;64.56
64336;BME280;50672;53.362;-6.240;2023-03-01T04:41:11;103671.78;;;7.25;64.73
64336;BME280;50672;53.362;-6.240;2023-03-01T04:43:44;103679.06;;;7.24;64.79
64336;BME280;50672;53.362;-6.240;2023-03-01T04:46:13;103674.50;;;7.25;64.72
64336;BME280;50672;53.362;-6.240;2023-03-01T04:48:42;103673.56;;;7.26;64.81
64336;BME280;50672;53.362;-6.240;2023-03-01T04:51:10;103668.22;;;7.24;64.90
64336;BME280;50672;53.362;-6.240;2023-03-01T04:53:40;103672.72;;;7.24;64.93
64336;BME280;50672;53.362;-6.240;2023-03-01T04:56:07;103673.69;;;7.23;65.21
64336;BME280;50672;53.362;-6.240;2023-03-01T04:58:34;103675.44;;;7.24;65.20
64336;BME280;50672;53.362;-6.240;2023-03-01T05:01:01;103680.88;;;7.24;65.33
64336;BME280;50672;53.362;-6.240;2023-03-01T05:03:28;103670.03;;;7.24;65.19
64336;BME280;50672;53.362;-6.240;2023-03-01T05:05:58;103681.59;;;7.27;65.38
64336;BME280;50672;53.362;-6.240;2023-03-01T05:08:26;103672.66;;;7.25;65.42
64336;BME280;50672;53.362;-6.240;2023-03-01T05:10:53;103665.41;;;7.26;65.46
64336;BME280;50672;53.362;-6.240;2023-03-01T05:13:21;103665.41;;;7.26;65.37
64336;BME280;50672;53.362;-6.240;2023-03-01T05:18:21;103670.97;;;7.23;65.45
64336;BME280;50672;53.362;-6.240;2023-03-01T05:23:31;103664.59;;;7.24;65.74
64336;BME280;50672;53.362;-6.240;2023-03-01T05:25:59;103662.84;;;7.23;65.75
64336;BME280;50672;53.362;-6.240;2023-03-01T05:28:26;103665.56;;;7.23;65.87
64336;BME280;50672;53.362;-6.240;2023-03-01T05:30:54;103659.28;;;7.22;65.79
64336;BME280;50672;53.362;-6.240;2023-03-01T05:33:21;103651.16;;;7.22;66.09
64336;BME280;50672;53.362;-6.240;2023-03-01T05:35:59;103653.00;;;7.22;65.87
64336;BME280;50672;53.362;-6.240;2023-03-01T05:38:26;103653.94;;;7.21;65.90
64336;BME280;50672;53.362;-6.240;2023-03-01T05:40:53;103651.22;;;7.21;65.97
64336;BME280;50672;53.362;-6.240;2023-03-01T05:43:30;103646.69;;;7.21;66.04
64336;BME280;50672;53.362;-6.240;2023-03-01T05:45:57;103656.47;;;7.24;66.03
64336;BME280;50672;53.362;-6.240;2023-03-01T05:48:24;103660.13;;;7.23;65.94
64336;BME280;50672;53.362;-6.240;2023-03-01T05:50:51;103660.13;;;7.23;66.10
64336;BME280;50672;53.362;-6.240;2023-03-01T05:53:19;103655.63;;;7.23;66.39
64336;BME280;50672;53.362;-6.240;2023-03-01T05:55:49;103660.09;;;7.24;66.68
64336;BME280;50672;53.362;-6.240;2023-03-01T05:58:18;103663.75;;;7.23;67.19
64336;BME280;50672;53.362;-6.240;2023-03-01T06:00:47;103668.44;;;7.19;67.47
64336;BME280;50672;53.362;-6.240;2023-03-01T06:03:16;103672.91;;;7.21;67.45
64336;BME280;50672;53.362;-6.240;2023-03-01T06:05:44;103682.78;;;7.22;67.62
64336;BME280;50672;53.362;-6.240;2023-03-01T06:08:11;103675.63;;;7.21;67.96
64336;BME280;50672;53.362;-6.240;2023-03-01T06:10:46;103672.19;;;7.17;68.21
64336;BME280;50672;53.362;-6.240;2023-03-01T06:13:14;103677.59;;;7.17;68.37
64336;BME280;50672;53.362;-6.240;2023-03-01T06:15:40;103681.34;;;7.14;68.34
64336;BME280;50672;53.362;-6.240;2023-03-01T06:18:08;103683.25;;;7.12;68.42
64336;BME280;50672;53.362;-6.240;2023-03-01T06:20:35;103683.34;;;7.11;68.42
64336;BME280;50672;53.362;-6.240;2023-03-01T06:23:02;103683.25;;;7.12;68.42
64336;BME280;50672;53.362;-6.240;2023-03-01T06:25:36;103682.41;;;7.12;68.43
64336;BME280;50672;53.362;-6.240;2023-03-01T06:28:03;103684.03;;;7.14;68.37
64336;BME280;50672;53.362;-6.240;2023-03-01T06:30:30;103685.03;;;7.13;68.26
64336;BME280;50672;53.362;-6.240;2023-03-01T06:33:04;103686.75;;;7.14;68.15
64336;BME280;50672;53.362;-6.240;2023-03-01T06:35:31;103682.31;;;7.13;68.12
64336;BME280;50672;53.362;-6.240;2023-03-01T06:38:02;103690.44;;;7.13;67.82
64336;BME280;50672;53.362;-6.240;2023-03-01T06:40:36;103687.56;;;7.16;67.92
64336;BME280;50672;53.362;-6.240;2023-03-01T06:43:02;103687.56;;;7.16;67.95
64336;BME280;50672;53.362;-6.240;2023-03-01T06:45:29;103690.19;;;7.18;67.72
64336;BME280;50672;53.362;-6.240;2023-03-01T06:48:07;103686.63;;;7.17;67.87
64336;BME280;50672;53.362;-6.240;2023-03-01T06:50:34;103673.06;;;7.17;67.90
64336;BME280;50672;53.362;-6.240;2023-03-01T06:53:08;103672.91;;;7.21;67.80
64336;BME280;50672;53.362;-6.240;2023-03-01T06:55:35;103671.22;;;7.18;67.97
64336;BME280;50672;53.362;-6.240;2023-03-01T06:58:02;103670.28;;;7.19;67.96
64336;BME280;50672;53.362;-6.240;2023-03-01T07:00:30;103677.47;;;7.20;68.04
64336;BME280;50672;53.362;-6.240;2023-03-01T07:02:59;103678.50;;;7.17;68.01
64336;BME280;50672;53.362;-6.240;2023-03-01T07:05:26;103679.34;;;7.18;68.24
64336;BME280;50672;53.362;-6.240;2023-03-01T07:07:53;103678.50;;;7.17;68.18
64336;BME280;50672;53.362;-6.240;2023-03-01T07:10:21;103681.28;;;7.16;68.20
64336;BME280;50672;53.362;-6.240;2023-03-01T07:12:48;103685.72;;;7.17;68.14
64336;BME280;50672;53.362;-6.240;2023-03-01T07:15:15;103687.66;;;7.15;68.05
64336;BME280;50672;53.362;-6.240;2023-03-01T07:17:42;103678.50;;;7.17;68.07
64336;BME280;50672;53.362;-6.240;2023-03-01T07:20:11;103689.31;;;7.17;67.92
64336;BME280;50672;53.362;-6.240;2023-03-01T07:22:40;103691.88;;;7.21;67.85
64336;BME280;50672;53.362;-6.240;2023-03-01T07:25:08;103694.66;;;7.19;67.99
64336;BME280;50672;53.362;-6.240;2023-03-01T07:27:35;103694.50;;;7.22;67.87
64336;BME280;50672;53.362;-6.240;2023-03-01T07:30:03;103690.91;;;7.22;67.75
64336;BME280;50672;53.362;-6.240;2023-03-01T07:32:29;103693.63;;;7.22;67.69
64336;BME280;50672;53.362;-6.240;2023-03-01T07:34:56;103694.56;;;7.21;67.55
64336;BME280;50672;53.362;-6.240;2023-03-01T07:37:24;103687.41;;;7.19;67.51
64336;BME280;50672;53.362;-6.240;2023-03-01T07:39:50;103690.91;;;7.22;67.20
64336;BME280;50672;53.362;-6.240;2023-03-01T07:42:17;103675.53;;;7.22;67.19
64336;BME280;50672;53.362;-6.240;2023-03-01T07:44:44;103684.47;;;7.24;66.88
64336;BME280;50672;53.362;-6.240;2023-03-01T07:47:10;103690.75;;;7.25;66.82
64336;BME280;50672;53.362;-6.240;2023-03-01T07:49:37;103689.72;;;7.27;66.89
64336;BME280;50672;53.362;-6.240;2023-03-01T07:52:04;103689.72;;;7.27;66.79
64336;BME280;50672;53.362;-6.240;2023-03-01T07:54:31;103689.00;;;7.24;66.74
64336;BME280;50672;53.362;-6.240;2023-03-01T07:56:57;103695.91;;;7.29;66.67
64336;BME280;50672;53.362;-6.240;2023-03-01T07:59:24;103701.41;;;7.28;66.30
64336;BME280;50672;53.362;-6.240;2023-03-01T08:01:56;103684.22;;;7.29;66.45
64336;BME280;50672;53.362;-6.240;2023-03-01T08:04:23;103691.44;;;7.28;66.35
64336;BME280;50672;53.362;-6.240;2023-03-01T08:06:51;103690.59;;;7.28;66.21
64336;BME280;50672;53.362;-6.240;2023-03-01T08:09:18;103688.69;;;7.30;65.98
64336;BME280;50672;53.362;-6.240;2023-03-01T08:11:45;103690.41;;;7.31;65.90
64336;BME280;50672;53.362;-6.240;2023-03-01T08:14:12;103692.97;;;7.34;65.85
64336;BME280;50672;53.362;-6.240;2023-03-01T08:16:38;103697.41;;;7.35;65.90
64336;BME280;50672;53.362;-6.240;2023-03-01T08:19:07;103694.72;;;7.35;65.62
64336;BME280;50672;53.362;-6.240;2023-03-01T08:21:34;103692.00;;;7.35;65.63
64336;BME280;50672;53.362;-6.240;2023-03-01T08:24:05;103690.97;;;7.38;65.43
64336;BME280;50672;53.362;-6.240;2023-03-01T08:26:33;103690.88;;;7.39;65.29
64336;BME280;50672;53.362;-6.240;2023-03-01T08:29:00;103691.69;;;7.41;65.38
64336;BME280;50672;53.362;-6.240;2023-03-01T08:31:33;103692.56;;;7.42;65.12
64336;BME280;50672;53.362;-6.240;2023-03-01T08:34:05;103700.59;;;7.43;64.82
64336;BME280;50672;53.362;-6.240;2023-03-01T08:36:36;103696.94;;;7.44;64.84
64336;BME280;50672;53.362;-6.240;2023-03-01T08:39:05;103697.81;;;7.45;64.54
64336;BME280;50672;53.362;-6.240;2023-03-01T08:41:32;103695.00;;;7.46;64.45
64336;BME280;50672;53.362;-6.240;2023-03-01T08:43:59;103694.16;;;7.46;64.46
64336;BME280;50672;53.362;-6.240;2023-03-01T08:46:27;103697.72;;;7.46;64.57
64336;BME280;50672;53.362;-6.240;2023-03-01T08:48:55;103702.03;;;7.50;64.56
64336;BME280;50672;53.362;-6.240;2023-03-01T08:51:23;103702.75;;;7.54;64.43
64336;BME280;50672;53.362;-6.240;2023-03-01T08:53:50;103703.28;;;7.61;64.43
64336;BME280;50672;53.362;-6.240;2023-03-01T08:56:18;103705.84;;;7.64;64.38
64336;BME280;50672;53.362;-6.240;2023-03-01T08:58:47;103705.56;;;7.68;64.37
64336;BME280;50672;53.362;-6.240;2023-03-01T09:01:16;103700.06;;;7.70;64.08
64336;BME280;50672;53.362;-6.240;2023-03-01T09:03:44;103709.78;;;7.74;64.06
64336;BME280;50672;53.362;-6.240;2023-03-01T09:06:11;103710.41;;;7.79;63.96
64336;BME280;50672;53.362;-6.240;2023-03-01T09:08:40;103712.09;;;7.82;63.83
64336;BME280;50672;53.362;-6.240;2023-03-01T09:11:09;103705.63;;;7.84;63.58
64336;BME280;50672;53.362;-6.240;2023-03-01T09:13:37;103707.22;;;7.89;63.36
64336;BME280;50672;53.362;-6.240;2023-03-01T09:16:06;103708.63;;;7.96;63.22
64336;BME280;50672;53.362;-6.240;2023-03-01T09:18:34;103702.84;;;8.02;63.00
64336;BME280;50672;53.362;-6.240;2023-03-01T09:21:07;103700.94;;;8.04;63.18
64336;BME280;50672;53.362;-6.240;2023-03-01T09:23:39;103713.28;;;8.10;62.98
64336;BME280;50672;53.362;-6.240;2023-03-01T09:26:10;103706.94;;;8.09;62.68
64336;BME280;50672;53.362;-6.240;2023-03-01T09:28:37;103707.75;;;8.11;62.72
64336;BME280;50672;53.362;-6.240;2023-03-01T09:31:05;103706.63;;;8.15;62.79
64336;BME280;50672;53.362;-6.240;2023-03-01T09:33:32;103714.41;;;8.21;62.67
64336;BME280;50672;53.362;-6.240;2023-03-01T09:36:04;103712.31;;;8.27;62.96
64336;BME280;50672;53.362;-6.240;2023-03-01T09:38:31;103707.41;;;8.33;62.92
64336;BME280;50672;53.362;-6.240;2023-03-01T09:40:59;103710.66;;;8.40;62.68
64336;BME280;50672;53.362;-6.240;2023-03-01T09:43:42;103707.75;;;8.43;62.81
64336;BME280;50672;53.362;-6.240;2023-03-01T09:46:13;103704.91;;;8.46;62.81
64336;BME280;50672;53.362;-6.240;2023-03-01T09:48:52;103710.56;;;8.42;62.58
64336;BME280;50672;53.362;-6.240;2023-03-01T09:51:41;103706.81;;;8.44;62.44
64336;BME280;50672;53.362;-6.240;2023-03-01T09:54:09;103711.09;;;8.48;62.52
64336;BME280;50672;53.362;-6.240;2023-03-01T09:56:47;103711.03;;;8.50;62.53
64336;BME280;50672;53.362;-6.240;2023-03-01T09:59:41;103708.47;;;8.63;62.80
64336;BME280;50672;53.362;-6.240;2023-03-01T10:02:38;103707.34;;;8.67;62.72
64336;BME280;50672;53.362;-6.240;2023-03-01T10:07:50;103700.16;;;8.66;62.56
64336;BME280;50672;53.362;-6.240;2023-03-01T10:10:38;103689.53;;;8.77;62.35
64336;BME280;50672;53.362;-6.240;2023-03-01T10:13:43;103694.41;;;8.86;62.31
64336;BME280;50672;53.362;-6.240;2023-03-01T10:16:16;103695.97;;;8.91;62.07
64336;BME280;50672;53.362;-6.240;2023-03-01T10:18:46;103695.59;;;8.97;62.10
64336;BME280;50672;53.362;-6.240;2023-03-01T10:21:18;103692.53;;;9.03;61.78
64336;BME280;50672;53.362;-6.240;2023-03-01T10:23:46;103696.88;;;9.05;61.92
64336;BME280;50672;53.362;-6.240;2023-03-01T10:26:41;103700.09;;;9.12;61.65
64336;BME280;50672;53.362;-6.240;2023-03-01T10:29:12;103696.97;;;9.04;61.33
64336;BME280;50672;53.362;-6.240;2023-03-01T10:31:50;103703.47;;;9.01;61.25
64336;BME280;50672;53.362;-6.240;2023-03-01T10:34:30;103692.38;;;8.90;61.33
64336;BME280;50672;53.362;-6.240;2023-03-01T10:37:11;103688.75;;;8.75;61.25
64336;BME280;50672;53.362;-6.240;2023-03-01T10:40:04;103690.34;;;8.63;61.46
64336;BME280;50672;53.362;-6.240;2023-03-01T10:42:36;103678.47;;;8.80;61.27
64336;BME280;50672;53.362;-6.240;2023-03-01T10:48:16;103675.81;;;8.95;61.62
64336;BME280;50672;53.362;-6.240;2023-03-01T10:50:48;103672.84;;;9.14;61.27
64336;BME280;50672;53.362;-6.240;2023-03-01T10:53:28;103678.72;;;9.51;61.30
64336;BME280;50672;53.362;-6.240;2023-03-01T10:56:08;103668.91;;;9.91;60.98
64336;BME280;50672;53.362;-6.240;2023-03-01T10:58:56;103657.16;;;10.18;60.77
64336;BME280;50672;53.362;-6.240;2023-03-01T11:01:26;103663.84;;;10.41;60.42
64336;BME280;50672;53.362;-6.240;2023-03-01T11:06:33;103654.78;;;10.68;59.39
64336;BME280;50672;53.362;-6.240;2023-03-01T11:09:19;103661.50;;;10.90;58.64
64336;BME280;50672;53.362;-6.240;2023-03-01T11:11:54;103657.16;;;11.00;58.42
64336;BME280;50672;53.362;-6.240;2023-03-01T11:14:24;103653.78;;;11.35;57.62
64336;BME280;50672;53.362;-6.240;2023-03-01T11:17:04;103654.88;;;11.58;57.32
64336;BME280;50672;53.362;-6.240;2023-03-01T11:19:32;103654.28;;;11.92;56.77
64336;BME280;50672;53.362;-6.240;2023-03-01T11:22:12;103652.41;;;12.05;56.70
64336;BME280;50672;53.362;-6.240;2023-03-01T11:24:43;103646.38;;;12.13;56.12
64336;BME280;50672;53.362;-6.240;2023-03-01T11:27:34;103647.66;;;12.20;55.66
64336;BME280;50672;53.362;-6.240;2023-03-01T11:30:26;103641.59;;;12.04;55.14
64336;BME280;50672;53.362;-6.240;2023-03-01T11:33:18;103651.13;;;11.98;54.92
64336;BME280;50672;53.362;-6.240;2023-03-01T11:36:01;103637.09;;;12.16;54.44
64336;BME280;50672;53.362;-6.240;2023-03-01T11:38:32;103638.19;;;12.13;54.36
64336;BME280;50672;53.362;-6.240;2023-03-01T11:41:19;103634.75;;;11.98;54.08
64336;BME280;50672;53.362;-6.240;2023-03-01T11:43:55;103631.16;;;11.85;54.03
64336;BME280;50672;53.362;-6.240;2023-03-01T11:51:43;103618.91;;;12.03;53.68
64336;BME280;50672;53.362;-6.240;2023-03-01T12:07:29;103595.34;;;13.77;51.05
64336;BME280;50672;53.362;-6.240;2023-03-01T12:10:17;103599.06;;;13.19;50.82
64336;BME280;50672;53.362;-6.240;2023-03-01T12:24:03;103574.25;;;12.75;50.78
64336;BME280;50672;53.362;-6.240;2023-03-01T12:26:36;103569.81;;;12.86;50.50
64336;BME280;50672;53.362;-6.240;2023-03-01T12:34:38;103548.09;;;13.63;50.67
64336;BME280;50672;53.362;-6.240;2023-03-01T12:37:25;103539.56;;;13.89;50.34
64336;BME280;50672;53.362;-6.240;2023-03-01T12:49:12;103517.25;;;15.11;47.73
64336;BME280;50672;53.362;-6.240;2023-03-01T12:51:37;103514.53;;;14.26;47.80
64336;BME280;50672;53.362;-6.240;2023-03-01T12:54:15;103510.41;;;13.56;48.00
64336;BME280;50672;53.362;-6.240;2023-03-01T12:56:43;103508.16;;;13.27;48.04
64336;BME280;50672;53.362;-6.240;2023-03-01T13:02:23;103505.31;;;13.06;48.62
64336;BME280;50672;53.362;-6.240;2023-03-01T13:05:06;103500.63;;;13.08;49.03
64336;BME280;50672;53.362;-6.240;2023-03-01T13:10:42;103484.38;;;14.05;49.24
64336;BME280;50672;53.362;-6.240;2023-03-01T13:13:24;103476.13;;;15.20;48.39
64336;BME280;50672;53.362;-6.240;2023-03-01T13:15:52;103484.38;;;16.20;47.57
64336;BME280;50672;53.362;-6.240;2023-03-01T13:20:48;103464.81;;;18.80;45.25
64336;BME280;50672;53.362;-6.240;2023-03-01T13:26:09;103452.97;;;22.66;41.65
64336;BME280;50672;53.362;-6.240;2023-03-01T13:44:16;103437.53;;;27.49;34.35
64336;BME280;50672;53.362;-6.240;2023-03-01T13:46:47;103443.94;;;27.04;33.74
64336;BME280;50672;53.362;-6.240;2023-03-01T13:49:30;103444.16;;;25.29;32.99
64336;BME280;50672;53.362;-6.240;2023-03-01T13:54:53;103419.66;;;23.47;32.85
64336;BME280;50672;53.362;-6.240;2023-03-01T13:57:26;103434.97;;;21.62;33.20
64336;BME280;50672;53.362;-6.240;2023-03-01T13:59:56;103444.63;;;20.47;33.54
64336;BME280;50672;53.362;-6.240;2023-03-01T14:02:23;103434.31;;;19.24;34.17
64336;BME280;50672;53.362;-6.240;2023-03-01T14:04:57;103445.25;;;17.95;34.82
64336;BME280;50672;53.362;-6.240;2023-03-01T14:07:25;103429.25;;;16.88;35.63
64336;BME280;50672;53.362;-6.240;2023-03-01T14:10:02;103450.47;;;17.88;36.27
64336;BME280;50672;53.362;-6.240;2023-03-01T14:12:39;103427.94;;;17.11;36.97
64336;BME280;50672;53.362;-6.240;2023-03-01T14:15:56;103434.47;;;17.37;37.32
64336;BME280;50672;53.362;-6.240;2023-03-01T14:19:27;103424.25;;;17.48;37.34
64336;BME280;50672;53.362;-6.240;2023-03-01T14:21:22;103417.06;;;17.37;37.47
64336;BME280;50672;53.362;-6.240;2023-03-01T14:23:49;103409.47;;;17.49;37.45
64336;BME280;50672;53.362;-6.240;2023-03-01T14:26:21;103416.59;;;18.14;37.13
64336;BME280;50672;53.362;-6.240;2023-03-01T14:28:49;103407.72;;;17.84;36.85
64336;BME280;50672;53.362;-6.240;2023-03-01T14:34:19;103402.22;;;17.30;36.79
64336;BME280;50672;53.362;-6.240;2023-03-01T14:36:46;103399.38;;;16.84;36.90
64336;BME280;50672;53.362;-6.240;2023-03-01T14:39:24;103391.84;;;16.58;36.85
64336;BME280;50672;53.362;-6.240;2023-03-01T14:41:52;103395.44;;;16.11;37.15
64336;BME280;50672;53.362;-6.240;2023-03-01T14:44:22;103394.59;;;15.71;36.86
64336;BME280;50672;53.362;-6.240;2023-03-01T14:46:53;103396.63;;;15.79;37.30
64336;BME280;50672;53.362;-6.240;2023-03-01T14:49:24;103395.75;;;15.79;37.86